sensor_id;sensor_type;location;lat;lon;timestamp;temperature;humidity
22469;DHT22;11401;50.792;4.352;2023-03-01T00:01:05;9.80;50.70
22469;DHT22;11401;50.792;4.352;2023-03-01T00:03:33;9.70;50.60
22469;DHT22;11401;50.792;4.352;2023-03-01T00:06:02;9.80;51.10
22469;DHT22;11401;50.792;4.352;2023-03-01T00:08:29;9.80;51.20
22469;DHT22;11401;50.792;4.352;2023-03-01T00:13:31;9.70;51.00
22469;DHT22;11401;50.792;4.352;2023-03-01T00:15:58;9.70;50.70
22469;DHT22;11401;50.792;4.352;2023-03-01T00:18:25;9.70;51.40
22469;DHT22;11401;50.792;4.352;2023-03-01T00:20:53;9.70;50.70
22469;DHT22;11401;50.792;4.352;2023-03-01T00:23:22;9.70;51.00
22469;DHT22;11401;50.792;4.352;2023-03-01T00:25:50;9.70;51.50
22469;DHT22;11401;50.792;4.352;2023-03-01T00:28:17;9.70;51.80
22469;DHT22;11401;50.792;4.352;2023-03-01T00:30:45;9.70;51.70
22469;DHT22;11401;50.792;4.352;2023-03-01T00:33:12;9.70;51.70
22469;DHT22;11401;50.792;4.352;2023-03-01T00:35:40;9.70;51.70
22469;DHT22;11401;50.792;4.352;2023-03-01T00:38:07;9.80;51.80
22469;DHT22;11401;50.792;4.352;2023-03-01T00:40:35;9.70;51.70
22469;DHT22;11401;50.792;4.352;2023-03-01T00:43:03;9.70;51.60
22469;DHT22;11401;50.792;4.352;2023-03-01T00:45:31;9.70;51.60
22469;DHT22;11401;50.792;4.352;2023-03-01T00:47:59;9.60;51.00
22469;DHT22;11401;50.792;4.352;2023-03-01T00:50:27;9.60;52.00
22469;DHT22;11401;50.792;4.352;2023-03-01T00:52:55;9.50;51.30
22469;DHT22;11401;50.792;4.352;2023-03-01T00:55:23;9.50;51.90
22469;DHT22;11401;50.792;4.352;2023-03-01T00:57:50;9.60;52.30
22469;DHT22;11401;50.792;4.352;2023-03-01T01:00:19;9.60;51.90
22469;DHT22;11401;50.792;4.352;2023-03-01T01:02:47;9.60;52.30
22469;DHT22;11401;50.792;4.352;2023-03-01T01:05:14;9.50;51.70
22469;DHT22;11401;50.792;4.352;2023-03-01T01:07:41;9.60;52.70
22469;DHT22;11401;50.792;4.352;2023-03-01T01:10:09;9.60;52.30
22469;DHT22;11401;50.792;4.352;2023-03-01T01:12:39;9.60;52.20
22469;DHT22;11401;50.792;4.352;2023-03-01T01:15:06;9.50;52.10
22469;DHT22;11401;50.792;4.352;2023-03-01T01:17:34;9.50;52.10
22469;DHT22;11401;50.792;4.352;2023-03-01T01:20:02;9.50;51.70
22469;DHT22;11401;50.792;4.352;2023-03-01T01:22:29;9.40;50.50
22469;DHT22;11401;50.792;4.352;2023-03-01T01:24:56;9.30;51.70
22469;DHT22;11401;50.792;4.352;2023-03-01T01:27:24;9.40;52.30
22469;DHT22;11401;50.792;4.352;2023-03-01T01:29:53;9.50;52.40
22469;DHT22;11401;50.792;4.352;2023-03-01T01:32:20;9.50;51.80
22469;DHT22;11401;50.792;4.352;2023-03-01T01:34:47;9.50;51.70
22469;DHT22;11401;50.792;4.352;2023-03-01T01:37:14;9.50;51.80
22469;DHT22;11401;50.792;4.352;2023-03-01T01:39:41;9.50;52.10
22469;DHT22;11401;50.792;4.352;2023-03-01T01:42:18;9.50;51.80
22469;DHT22;11401;50.792;4.352;2023-03-01T01:44:46;9.50;51.90
22469;DHT22;11401;50.792;4.352;2023-03-01T01:47:19;9.50;52.30
22469;DHT22;11401;50.792;4.352;2023-03-01T01:49:49;9.50;51.00
22469;DHT22;11401;50.792;4.352;2023-03-01T01:52:24;9.50;52.00
22469;DHT22;11401;50.792;4.352;2023-03-01T01:57:45;9.50;51.60
22469;DHT22;11401;50.792;4.352;2023-03-01T02:00:14;9.50;51.70
22469;DHT22;11401;50.792;4.352;2023-03-01T02:02:44;9.50;51.40
22469;DHT22;11401;50.792;4.352;2023-03-01T02:05:15;9.40;52.20
22469;DHT22;11401;50.792;4.352;2023-03-01T02:07:44;9.40;52.60
22469;DHT22;11401;50.792;4.352;2023-03-01T02:10:12;9.30;51.70
22469;DHT22;11401;50.792;4.352;2023-03-01T02:12:39;9.40;52.40
22469;DHT22;11401;50.792;4.352;2023-03-01T02:15:06;9.50;52.40
22469;DHT22;11401;50.792;4.352;2023-03-01T02:17:34;9.60;52.30
22469;DHT22;11401;50.792;4.352;2023-03-01T02:23:01;9.70;50.20
22469;DHT22;11401;50.792;4.352;2023-03-01T02:28:45;9.70;51.40
22469;DHT22;11401;50.792;4.352;2023-03-01T02:31:17;9.80;51.60
22469;DHT22;11401;50.792;4.352;2023-03-01T02:34:05;9.80;50.60
22469;DHT22;11401;50.792;4.352;2023-03-01T02:39:42;10.00;51.10
22469;DHT22;11401;50.792;4.352;2023-03-01T02:42:13;10.00;50.80
22469;DHT22;11401;50.792;4.352;2023-03-01T02:44:41;10.00;50.30
22469;DHT22;11401;50.792;4.352;2023-03-01T02:47:08;10.00;50.50
22469;DHT22;11401;50.792;4.352;2023-03-01T02:49:36;10.10;51.40
22469;DHT22;11401;50.792;4.352;2023-03-01T02:55:11;10.20;50.70
22469;DHT22;11401;50.792;4.352;2023-03-01T02:57:42;10.20;50.60
22469;DHT22;11401;50.792;4.352;2023-03-01T03:00:13;10.20;50.60
22469;DHT22;11401;50.792;4.352;2023-03-01T03:02:51;10.20;50.40
22469;DHT22;11401;50.792;4.352;2023-03-01T03:05:27;10.20;50.30
22469;DHT22;11401;50.792;4.352;2023-03-01T03:07:59;10.10;50.60
22469;DHT22;11401;50.792;4.352;2023-03-01T03:10:29;10.10;50.70
22469;DHT22;11401;50.792;4.352;2023-03-01T03:13:02;10.20;50.80
22469;DHT22;11401;50.792;4.352;2023-03-01T03:15:31;10.10;50.30
22469;DHT22;11401;50.792;4.352;2023-03-01T03:18:05;10.10;51.00
22469;DHT22;11401;50.792;4.352;2023-03-01T03:20:32;10.10;51.10
22469;DHT22;11401;50.792;4.352;2023-03-01T03:23:00;10.00;50.70
22469;DHT22;11401;50.792;4.352;2023-03-01T03:25:28;10.00;51.50
22469;DHT22;11401;50.792;4.352;2023-03-01T03:27:56;9.90;51.30
22469;DHT22;11401;50.792;4.352;2023-03-01T03:30:31;10.00;51.10
22469;DHT22;11401;50.792;4.352;2023-03-01T03:32:59;9.90;50.70
22469;DHT22;11401;50.792;4.352;2023-03-01T03:35:28;9.90;51.00
22469;DHT22;11401;50.792;4.352;2023-03-01T03:38:00;9.90;51.30
22469;DHT22;11401;50.792;4.352;2023-03-01T03:40:40;9.90;51.30
22469;DHT22;11401;50.792;4.352;2023-03-01T03:43:11;9.90;50.50
22469;DHT22;11401;50.792;4.352;2023-03-01T03:45:39;9.80;51.00
22469;DHT22;11401;50.792;4.352;2023-03-01T03:48:08;9.80;50.50
22469;DHT22;11401;50.792;4.352;2023-03-01T03:50:37;9.70;51.00
22469;DHT22;11401;50.792;4.352;2023-03-01T03:53:10;9.60;51.40
22469;DHT22;11401;50.792;4.352;2023-03-01T03:55:38;9.50;50.90
22469;DHT22;11401;50.792;4.352;2023-03-01T03:58:08;9.60;51.20
22469;DHT22;11401;50.792;4.352;2023-03-01T04:00:43;9.60;50.30
22469;DHT22;11401;50.792;4.352;2023-03-01T04:03:12;9.50;50.70
22469;DHT22;11401;50.792;4.352;2023-03-01T04:05:40;9.50;51.20
22469;DHT22;11401;50.792;4.352;2023-03-01T04:08:08;9.60;51.50
22469;DHT22;11401;50.792;4.352;2023-03-01T04:10:40;9.40;48.90
22469;DHT22;11401;50.792;4.352;2023-03-01T04:13:11;9.50;51.70
22469;DHT22;11401;50.792;4.352;2023-03-01T04:15:39;9.60;51.60
22469;DHT22;11401;50.792;4.352;2023-03-01T04:18:06;9.70;51.60
22469;DHT22;11401;50.792;4.352;2023-03-01T04:20:35;9.80;51.20
22469;DHT22;11401;50.792;4.352;2023-03-01T04:23:07;9.70;50.70
22469;DHT22;11401;50.792;4.352;2023-03-01T04:30:58;9.70;50.60
22469;DHT22;11401;50.792;4.352;2023-03-01T04:33:25;9.80;51.30
22469;DHT22;11401;50.792;4.352;2023-03-01T04:35:52;9.80;50.90
22469;DHT22;11401;50.792;4.352;2023-03-01T04:38:19;9.80;50.40
22469;DHT22;11401;50.792;4.352;2023-03-01T04:40:48;9.80;51.10
22469;DHT22;11401;50.792;4.352;2023-03-01T04:43:15;9.80;50.70
22469;DHT22;11401;50.792;4.352;2023-03-01T04:45:42;9.80;50.70
22469;DHT22;11401;50.792;4.352;2023-03-01T04:48:09;9.80;51.10
22469;DHT22;11401;50.792;4.352;2023-03-01T04:50:36;9.80;50.80
22469;DHT22;11401;50.792;4.352;2023-03-01T04:53:03;9.80;50.50
22469;DHT22;11401;50.792;4.352;2023-03-01T04:55:30;9.70;50.60
22469;DHT22;11401;50.792;4.352;2023-03-01T04:57:58;9.80;50.50
22469;DHT22;11401;50.792;4.352;2023-03-01T05:00:25;9.70;50.00
22469;DHT22;11401;50.792;4.352;2023-03-01T05:02:57;9.70;49.80
22469;DHT22;11401;50.792;4.352;2023-03-01T05:05:27;9.60;51.00
22469;DHT22;11401;50.792;4.352;2023-03-01T05:07:57;9.60;50.70
22469;DHT22;11401;50.792;4.352;2023-03-01T05:10:26;9.70;50.60
22469;DHT22;11401;50.792;4.352;2023-03-01T05:12:56;9.70;51.10
22469;DHT22;11401;50.792;4.352;2023-03-01T05:15:28;9.70;50.90
22469;DHT22;11401;50.792;4.352;2023-03-01T05:17:56;9.70;49.90
22469;DHT22;11401;50.792;4.352;2023-03-01T05:20:27;9.70;50.40
22469;DHT22;11401;50.792;4.352;2023-03-01T05:22:58;9.60;50.50
22469;DHT22;11401;50.792;4.352;2023-03-01T05:25:26;9.60;50.50
22469;DHT22;11401;50.792;4.352;2023-03-01T05:27:53;9.70;51.10
22469;DHT22;11401;50.792;4.352;2023-03-01T05:30:20;9.70;50.80
22469;DHT22;11401;50.792;4.352;2023-03-01T05:32:49;9.70;50.80
22469;DHT22;11401;50.792;4.352;2023-03-01T05:35:22;9.60;50.40
22469;DHT22;11401;50.792;4.352;2023-03-01T05:37:50;9.60;50.70
22469;DHT22;11401;50.792;4.352;2023-03-01T05:40:20;9.70;50.70
22469;DHT22;11401;50.792;4.352;2023-03-01T05:42:49;9.70;50.70
22469;DHT22;11401;50.792;4.352;2023-03-01T05:45:18;9.60;50.60
22469;DHT22;11401;50.792;4.352;2023-03-01T05:47:46;9.60;50.50
22469;DHT22;11401;50.792;4.352;2023-03-01T05:50:28;9.60;50.00
22469;DHT22;11401;50.792;4.352;2023-03-01T05:53:07;9.70;50.90
22469;DHT22;11401;50.792;4.352;2023-03-01T05:55:36;9.70;50.40
22469;DHT22;11401;50.792;4.352;2023-03-01T05:58:06;9.70;50.10
22469;DHT22;11401;50.792;4.352;2023-03-01T06:00:34;9.70;50.60
22469;DHT22;11401;50.792;4.352;2023-03-01T06:03:01;9.70;50.20
22469;DHT22;11401;50.792;4.352;2023-03-01T06:05:29;9.70;50.70
22469;DHT22;11401;50.792;4.352;2023-03-01T06:07:59;9.60;50.20
22469;DHT22;11401;50.792;4.352;2023-03-01T06:10:26;9.50;50.40
22469;DHT22;11401;50.792;4.352;2023-03-01T06:12:54;9.50;50.60
22469;DHT22;11401;50.792;4.352;2023-03-01T06:15:21;9.50;50.70
22469;DHT22;11401;50.792;4.352;2023-03-01T06:17:48;9.50;50.40
22469;DHT22;11401;50.792;4.352;2023-03-01T06:20:17;9.40;49.80
22469;DHT22;11401;50.792;4.352;2023-03-01T06:22:44;9.20;50.40
22469;DHT22;11401;50.792;4.352;2023-03-01T06:25:14;9.10;50.70
22469;DHT22;11401;50.792;4.352;2023-03-01T06:27:41;9.10;50.90
22469;DHT22;11401;50.792;4.352;2023-03-01T06:30:11;9.00;51.00
22469;DHT22;11401;50.792;4.352;2023-03-01T06:32:38;8.90;50.80
22469;DHT22;11401;50.792;4.352;2023-03-01T06:35:10;8.60;49.80
22469;DHT22;11401;50.792;4.352;2023-03-01T06:37:40;8.60;52.60
22469;DHT22;11401;50.792;4.352;2023-03-01T06:40:08;8.80;52.20
22469;DHT22;11401;50.792;4.352;2023-03-01T06:42:39;8.70;51.60
22469;DHT22;11401;50.792;4.352;2023-03-01T06:45:07;8.70;51.60
22469;DHT22;11401;50.792;4.352;2023-03-01T06:47:35;8.70;52.60
22469;DHT22;11401;50.792;4.352;2023-03-01T06:50:03;8.70;52.00
22469;DHT22;11401;50.792;4.352;2023-03-01T06:52:30;8.70;51.60
22469;DHT22;11401;50.792;4.352;2023-03-01T06:54:57;8.80;52.40
22469;DHT22;11401;50.792;4.352;2023-03-01T06:57:24;8.80;52.00
22469;DHT22;11401;50.792;4.352;2023-03-01T06:59:51;8.80;51.60
22469;DHT22;11401;50.792;4.352;2023-03-01T07:02:18;8.80;52.00
22469;DHT22;11401;50.792;4.352;2023-03-01T07:04:45;8.90;51.40
22469;DHT22;11401;50.792;4.352;2023-03-01T07:07:12;8.80;51.10
22469;DHT22;11401;50.792;4.352;2023-03-01T07:09:39;8.80;51.20
22469;DHT22;11401;50.792;4.352;2023-03-01T07:12:07;8.70;51.70
22469;DHT22;11401;50.792;4.352;2023-03-01T07:14:34;8.80;53.30
22469;DHT22;11401;50.792;4.352;2023-03-01T07:17:01;9.00;52.50
22469;DHT22;11401;50.792;4.352;2023-03-01T07:19:28;9.20;52.40
22469;DHT22;11401;50.792;4.352;2023-03-01T07:21:55;9.20;51.70
22469;DHT22;11401;50.792;4.352;2023-03-01T07:24:23;9.30;51.90
22469;DHT22;11401;50.792;4.352;2023-03-01T07:26:51;9.40;51.30
22469;DHT22;11401;50.792;4.352;2023-03-01T07:29:18;9.40;51.20
22469;DHT22;11401;50.792;4.352;2023-03-01T07:31:45;9.40;50.50
22469;DHT22;11401;50.792;4.352;2023-03-01T07:34:14;9.40;51.20
22469;DHT22;11401;50.792;4.352;2023-03-01T07:36:41;9.20;50.50
22469;DHT22;11401;50.792;4.352;2023-03-01T07:39:10;9.00;51.00
22469;DHT22;11401;50.792;4.352;2023-03-01T07:41:38;9.00;51.00
22469;DHT22;11401;50.792;4.352;2023-03-01T07:44:05;8.80;51.00
22469;DHT22;11401;50.792;4.352;2023-03-01T07:46:32;8.80;51.70
22469;DHT22;11401;50.792;4.352;2023-03-01T07:48:59;8.80;51.70
22469;DHT22;11401;50.792;4.352;2023-03-01T07:51:27;8.80;51.50
22469;DHT22;11401;50.792;4.352;2023-03-01T07:53:54;8.70;51.60
22469;DHT22;11401;50.792;4.352;2023-03-01T07:56:21;8.70;50.90
22469;DHT22;11401;50.792;4.352;2023-03-01T07:58:48;8.60;51.80
22469;DHT22;11401;50.792;4.352;2023-03-01T08:01:19;8.70;51.80
22469;DHT22;11401;50.792;4.352;2023-03-01T08:03:48;8.80;52.00
22469;DHT22;11401;50.792;4.352;2023-03-01T08:06:16;8.80;51.40
22469;DHT22;11401;50.792;4.352;2023-03-01T08:08:44;8.70;50.70
22469;DHT22;11401;50.792;4.352;2023-03-01T08:11:13;8.70;51.50
22469;DHT22;11401;50.792;4.352;2023-03-01T08:13:42;8.10;47.40
22469;DHT22;11401;50.792;4.352;2023-03-01T08:16:14;8.10;53.50
22469;DHT22;11401;50.792;4.352;2023-03-01T08:18:42;8.50;52.90
22469;DHT22;11401;50.792;4.352;2023-03-01T08:21:13;8.70;51.20
22469;DHT22;11401;50.792;4.352;2023-03-01T08:23:41;8.80;51.80
22469;DHT22;11401;50.792;4.352;2023-03-01T08:26:13;9.10;52.10
22469;DHT22;11401;50.792;4.352;2023-03-01T08:28:41;9.20;50.30
22469;DHT22;11401;50.792;4.352;2023-03-01T08:31:29;9.30;51.10
22469;DHT22;11401;50.792;4.352;2023-03-01T08:34:00;9.40;50.20
22469;DHT22;11401;50.792;4.352;2023-03-01T08:36:29;9.70;50.50
22469;DHT22;11401;50.792;4.352;2023-03-01T08:38:57;9.80;50.00
22469;DHT22;11401;50.792;4.352;2023-03-01T08:41:25;9.70;49.10
22469;DHT22;11401;50.792;4.352;2023-03-01T08:43:52;9.80;48.70
22469;DHT22;11401;50.792;4.352;2023-03-01T08:46:19;9.50;47.70
22469;DHT22;11401;50.792;4.352;2023-03-01T08:48:46;9.40;47.90
22469;DHT22;11401;50.792;4.352;2023-03-01T08:51:16;9.40;48.60
22469;DHT22;11401;50.792;4.352;2023-03-01T08:53:45;9.60;49.00
22469;DHT22;11401;50.792;4.352;2023-03-01T08:56:13;9.60;50.90
22469;DHT22;11401;50.792;4.352;2023-03-01T08:58:44;9.70;49.10
22469;DHT22;11401;50.792;4.352;2023-03-01T09:01:17;9.70;48.60
22469;DHT22;11401;50.792;4.352;2023-03-01T09:03:44;9.80;48.30
22469;DHT22;11401;50.792;4.352;2023-03-01T09:06:12;9.80;47.60
22469;DHT22;11401;50.792;4.352;2023-03-01T09:08:43;9.70;48.60
22469;DHT22;11401;50.792;4.352;2023-03-01T09:11:12;9.90;48.70
22469;DHT22;11401;50.792;4.352;2023-03-01T09:13:40;10.00;48.40
22469;DHT22;11401;50.792;4.352;2023-03-01T09:16:11;9.90;47.70
22469;DHT22;11401;50.792;4.352;2023-03-01T09:18:38;10.00;47.80
22469;DHT22;11401;50.792;4.352;2023-03-01T09:23:35;10.10;48.50
22469;DHT22;11401;50.792;4.352;2023-03-01T09:26:03;10.00;46.80
22469;DHT22;11401;50.792;4.352;2023-03-01T09:28:30;9.90;48.00
22469;DHT22;11401;50.792;4.352;2023-03-01T09:30:59;10.00;46.80
22469;DHT22;11401;50.792;4.352;2023-03-01T09:33:28;10.20;47.70
22469;DHT22;11401;50.792;4.352;2023-03-01T09:36:06;10.20;46.30
22469;DHT22;11401;50.792;4.352;2023-03-01T09:38:34;10.30;47.40
22469;DHT22;11401;50.792;4.352;2023-03-01T09:41:01;10.30;46.10
22469;DHT22;11401;50.792;4.352;2023-03-01T09:43:42;10.30;48.20
22469;DHT22;11401;50.792;4.352;2023-03-01T09:46:13;10.40;47.80
22469;DHT22;11401;50.792;4.352;2023-03-01T09:48:48;10.30;45.00
22469;DHT22;11401;50.792;4.352;2023-03-01T09:51:48;10.40;48.60
22469;DHT22;11401;50.792;4.352;2023-03-01T09:54:20;10.40;46.40
22469;DHT22;11401;50.792;4.352;2023-03-01T09:57:03;10.40;48.00
22469;DHT22;11401;50.792;4.352;2023-03-01T10:08:46;10.30;45.70
22469;DHT22;11401;50.792;4.352;2023-03-01T10:11:21;10.50;47.80
22469;DHT22;11401;50.792;4.352;2023-03-01T10:13:55;10.60;46.70
22469;DHT22;11401;50.792;4.352;2023-03-01T10:19:17;10.60;45.10
22469;DHT22;11401;50.792;4.352;2023-03-01T10:21:46;10.60;46.30
22469;DHT22;11401;50.792;4.352;2023-03-01T10:24:17;10.70;46.30
22469;DHT22;11401;50.792;4.352;2023-03-01T10:27:04;10.80;46.70
22469;DHT22;11401;50.792;4.352;2023-03-01T10:29:40;10.90;47.40
22469;DHT22;11401;50.792;4.352;2023-03-01T10:32:11;10.80;46.10
22469;DHT22;11401;50.792;4.352;2023-03-01T10:34:38;10.80;45.00
22469;DHT22;11401;50.792;4.352;2023-03-01T10:37:18;10.90;45.10
22469;DHT22;11401;50.792;4.352;2023-03-01T10:40:07;10.80;46.00
22469;DHT22;11401;50.792;4.352;2023-03-01T10:42:39;10.80;44.10
22469;DHT22;11401;50.792;4.352;2023-03-01T10:45:33;10.60;44.40
22469;DHT22;11401;50.792;4.352;2023-03-01T10:50:45;10.50;45.10
22469;DHT22;11401;50.792;4.352;2023-03-01T10:53:28;10.50;44.90
22469;DHT22;11401;50.792;4.352;2023-03-01T10:56:07;10.50;45.90
22469;DHT22;11401;50.792;4.352;2023-03-01T10:58:37;10.40;44.80
22469;DHT22;11401;50.792;4.352;2023-03-01T11:03:43;10.50;46.50
22469;DHT22;11401;50.792;4.352;2023-03-01T11:06:20;10.60;45.90
22469;DHT22;11401;50.792;4.352;2023-03-01T11:08:49;10.80;48.20
22469;DHT22;11401;50.792;4.352;2023-03-01T11:14:35;10.90;46.20
22469;DHT22;11401;50.792;4.352;2023-03-01T11:17:04;11.00;46.70
22469;DHT22;11401;50.792;4.352;2023-03-01T11:19:32;10.90;47.30
22469;DHT22;11401;50.792;4.352;2023-03-01T11:24:37;10.90;47.50
22469;DHT22;11401;50.792;4.352;2023-03-01T11:29:54;10.90;45.00
22469;DHT22;11401;50.792;4.352;2023-03-01T11:32:26;10.80;44.00
22469;DHT22;11401;50.792;4.352;2023-03-01T11:35:17;10.90;48.10
22469;DHT22;11401;50.792;4.352;2023-03-01T11:40:43;11.20;46.00
22469;DHT22;11401;50.792;4.352;2023-03-01T11:43:50;11.30;48.30
22469;DHT22;11401;50.792;4.352;2023-03-01T11:49:17;11.30;45.50
22469;DHT22;11401;50.792;4.352;2023-03-01T11:52:12;11.10;46.30
22469;DHT22;11401;50.792;4.352;2023-03-01T12:28:35;11.60;48.90
22469;DHT22;11401;50.792;4.352;2023-03-01T12:51:03;11.50;44.50
22469;DHT22;11401;50.792;4.352;2023-03-01T12:53:35;11.60;43.80
22469;DHT22;11401;50.792;4.352;2023-03-01T12:56:08;11.60;44.80
22469;DHT22;11401;50.792;4.352;2023-03-01T13:01:42;11.70;42.60
22469;DHT22;11401;50.792;4.352;2023-03-01T13:04:43;11.60;42.10
22469;DHT22;11401;50.792;4.352;2023-03-01T13:07:28;11.50;42.90
22469;DHT22;11401;50.792;4.352;2023-03-01T13:15:31;11.80;45.50
22469;DHT22;11401;50.792;4.352;2023-03-01T13:18:00;11.90;45.60
22469;DHT22;11401;50.792;4.352;2023-03-01T13:20:33;12.00;44.70
22469;DHT22;11401;50.792;4.352;2023-03-01T13:26:12;12.00;43.40
22469;DHT22;11401;50.792;4.352;2023-03-01T13:38:55;12.00;42.90
22469;DHT22;11401;50.792;4.352;2023-03-01T13:50:00;11.70;39.90
22469;DHT22;11401;50.792;4.352;2023-03-01T13:52:40;11.60;41.10
22469;DHT22;11401;50.792;4.352;2023-03-01T13:57:43;11.40;40.00
22469;DHT22;11401;50.792;4.352;2023-03-01T14:05:33;11.70;41.90
22469;DHT22;11401;50.792;4.352;2023-03-01T14:08:19;11.60;41.20
22469;DHT22;11401;50.792;4.352;2023-03-01T14:11:21;11.60;41.60
22469;DHT22;11401;50.792;4.352;2023-03-01T14:19:19;11.90;42.00
22469;DHT22;11401;50.792;4.352;2023-03-01T14:22:04;11.90;41.10
22469;DHT22;11401;50.792;4.352;2023-03-01T14:24:40;11.90;41.90
22469;DHT22;11401;50.792;4.352;2023-03-01T14:27:12;11.80;39.90
22469;DHT22;11401;50.792;4.352;2023-03-01T14:29:40;11.70;45.20
22469;DHT22;11401;50.792;4.352;2023-03-01T14:34:58;12.00;40.60
22469;DHT22;11401;50.792;4.352;2023-03-01T14:37:29;11.90;40.10
22469;DHT22;11401;50.792;4.352;2023-03-01T14:39:57;11.70;39.10
22469;DHT22;11401;50.792;4.352;2023-03-01T14:42:28;11.80;44.30
22469;DHT22;11401;50.792;4.352;2023-03-01T14:44:57;11.90;43.20
22469;DHT22;11401;50.792;4.352;2023-03-01T14:47:35;11.90;41.90
22469;DHT22;11401;50.792;4.352;2023-03-01T14:50:41;11.80;40.40
22469;DHT22;11401;50.792;4.352;2023-03-01T14:53:21;11.80;41.00
22469;DHT22;11401;50.792;4.352;2023-03-01T14:55:54;11.60;39.70
22469;DHT22;11401;50.792;4.352;2023-03-01T14:58:24;11.60;39.70
22469;DHT22;11401;50.792;4.352;2023-03-01T15:01:01;11.40;39.10
22469;DHT22;11401;50.792;4.352;2023-03-01T15:03:38;11.60;43.70
22469;DHT22;11401;50.792;4.352;2023-03-01T15:06:09;11.70;42.90
22469;DHT22;11401;50.792;4.352;2023-03-01T15:08:37;11.70;43.60
22469;DHT22;11401;50.792;4.352;2023-03-01T15:13:41;11.40;42.70
22469;DHT22;11401;50.792;4.352;2023-03-01T15:16:13;11.70;46.10
22469;DHT22;11401;50.792;4.352;2023-03-01T15:18:53;11.70;40.60
22469;DHT22;11401;50.792;4.352;2023-03-01T15:21:35;11.60;45.10
22469;DHT22;11401;50.792;4.352;2023-03-01T15:26:55;11.80;43.40
22469;DHT22;11401;50.792;4.352;2023-03-01T15:29:26;11.80;41.50
22469;DHT22;11401;50.792;4.352;2023-03-01T15:32:00;11.80;41.00
22469;DHT22;11401;50.792;4.352;2023-03-01T15:34:29;11.70;39.80
22469;DHT22;11401;50.792;4.352;2023-03-01T15:36:58;11.50;41.40
22469;DHT22;11401;50.792;4.352;2023-03-01T15:41:54;11.60;40.30
22469;DHT22;11401;50.792;4.352;2023-03-01T15:44:29;11.50;40.90
22469;DHT22;11401;50.792;4.352;2023-03-01T15:47:26;11.30;41.30
22469;DHT22;11401;50.792;4.352;2023-03-01T15:49:55;11.20;43.20
22469;DHT22;11401;50.792;4.352;2023-03-01T15:52:35;11.30;43.00
22469;DHT22;11401;50.792;4.352;2023-03-01T15:55:18;11.50;44.50
22469;DHT22;11401;50.792;4.352;2023-03-01T15:57:48;11.60;43.30
22469;DHT22;11401;50.792;4.352;2023-03-01T16:00:16;11.70;43.50
22469;DHT22;11401;50.792;4.352;2023-03-01T16:02:44;11.70;43.00
22469;DHT22;11401;50.792;4.352;2023-03-01T16:05:38;11.60;42.70
22469;DHT22;11401;50.792;4.352;2023-03-01T16:08:06;11.60;41.80
22469;DHT22;11401;50.792;4.352;2023-03-01T16:10:34;11.70;42.30
22469;DHT22;11401;50.792;4.352;2023-03-01T16:13:01;11.60;41.20
22469;DHT22;11401;50.792;4.352;2023-03-01T16:15:31;11.70;42.00
22469;DHT22;11401;50.792;4.352;2023-03-01T16:17:59;11.60;41.30
22469;DHT22;11401;50.792;4.352;2023-03-01T16:20:26;11.70;42.60
22469;DHT22;11401;50.792;4.352;2023-03-01T16:23:01;11.60;40.00
22469;DHT22;11401;50.792;4.352;2023-03-01T16:25:29;11.70;42.00
22469;DHT22;11401;50.792;4.352;2023-03-01T16:27:56;11.50;41.30
22469;DHT22;11401;50.792;4.352;2023-03-01T16:30:25;11.50;39.50
22469;DHT22;11401;50.792;4.352;2023-03-01T16:32:52;11.50;42.30
22469;DHT22;11401;50.792;4.352;2023-03-01T16:35:21;11.50;42.60
22469;DHT22;11401;50.792;4.352;2023-03-01T16:37:48;11.50;42.00
22469;DHT22;11401;50.792;4.352;2023-03-01T16:40:18;11.70;41.70
22469;DHT22;11401;50.792;4.352;2023-03-01T16:42:50;11.70;42.80
22469;DHT22;11401;50.792;4.352;2023-03-01T16:45:18;11.90;42.40
22469;DHT22;11401;50.792;4.352;2023-03-01T16:47:52;12.00;41.40
22469;DHT22;11401;50.792;4.352;2023-03-01T16:50:22;12.00;41.30
22469;DHT22;11401;50.792;4.352;2023-03-01T16:52:49;12.00;41.70
22469;DHT22;11401;50.792;4.352;2023-03-01T16:55:16;12.00;41.90
22469;DHT22;11401;50.792;4.352;2023-03-01T16:57:43;12.00;42.10
22469;DHT22;11401;50.792;4.352;2023-03-01T17:00:11;11.90;40.90
22469;DHT22;11401;50.792;4.352;2023-03-01T17:02:40;11.80;41.50
22469;DHT22;11401;50.792;4.352;2023-03-01T17:05:09;11.70;40.70
22469;DHT22;11401;50.792;4.352;2023-03-01T17:07:38;11.60;39.80
22469;DHT22;11401;50.792;4.352;2023-03-01T17:10:07;11.60;41.10
22469;DHT22;11401;50.792;4.352;2023-03-01T17:12:35;11.60;40.70
22469;DHT22;11401;50.792;4.352;2023-03-01T17:15:04;11.50;40.60
22469;DHT22;11401;50.792;4.352;2023-03-01T17:17:31;11.50;41.20
22469;DHT22;11401;50.792;4.352;2023-03-01T17:19:59;11.30;40.50
22469;DHT22;11401;50.792;4.352;2023-03-01T17:22:27;11.30;42.20
22469;DHT22;11401;50.792;4.352;2023-03-01T17:24:55;11.20;39.70
22469;DHT22;11401;50.792;4.352;2023-03-01T17:27:22;10.70;40.50
22469;DHT22;11401;50.792;4.352;2023-03-01T17:29:51;10.80;43.00
22469;DHT22;11401;50.792;4.352;2023-03-01T17:32:18;11.00;44.30
22469;DHT22;11401;50.792;4.352;2023-03-01T17:34:49;11.10;45.20
22469;DHT22;11401;50.792;4.352;2023-03-01T17:37:16;11.20;44.80
22469;DHT22;11401;50.792;4.352;2023-03-01T17:39:43;11.30;44.10
22469;DHT22;11401;50.792;4.352;2023-03-01T17:42:11;11.20;43.50
22469;DHT22;11401;50.792;4.352;2023-03-01T17:44:39;11.20;44.30
22469;DHT22;11401;50.792;4.352;2023-03-01T17:47:08;11.20;44.90
22469;DHT22;11401;50.792;4.352;2023-03-01T17:49:36;11.30;45.30
22469;DHT22;11401;50.792;4.352;2023-03-01T17:52:03;11.30;44.30
22469;DHT22;11401;50.792;4.352;2023-03-01T17:54:31;11.30;44.40
22469;DHT22;11401;50.792;4.352;2023-03-01T17:56:59;11.40;44.80
22469;DHT22;11401;50.792;4.352;2023-03-01T17:59:27;11.40;44.90
22469;DHT22;11401;50.792;4.352;2023-03-01T18:01:59;11.40;45.30
22469;DHT22;11401;50.792;4.352;2023-03-01T18:04:28;11.40;44.70
22469;DHT22;11401;50.792;4.352;2023-03-01T18:06:55;11.40;44.70
22469;DHT22;11401;50.792;4.352;2023-03-01T18:09:25;11.40;45.00
22469;DHT22;11401;50.792;4.352;2023-03-01T18:11:53;11.40;45.20
22469;DHT22;11401;50.792;4.352;2023-03-01T18:14:21;11.40;45.20
22469;DHT22;11401;50.792;4.352;2023-03-01T18:16:49;11.40;45.10
22469;DHT22;11401;50.792;4.352;2023-03-01T18:19:16;11.40;45.20
22469;DHT22;11401;50.792;4.352;2023-03-01T18:21:43;11.40;44.60
22469;DHT22;11401;50.792;4.352;2023-03-01T18:24:12;11.30;44.30
22469;DHT22;11401;50.792;4.352;2023-03-01T18:26:40;11.30;44.50
22469;DHT22;11401;50.792;4.352;2023-03-01T18:29:07;11.30;45.60
22469;DHT22;11401;50.792;4.352;2023-03-01T18:31:36;11.30;45.10
22469;DHT22;11401;50.792;4.352;2023-03-01T18:34:03;11.40;45.40
22469;DHT22;11401;50.792;4.352;2023-03-01T18:36:33;11.30;45.00
22469;DHT22;11401;50.792;4.352;2023-03-01T18:39:06;11.40;45.60
22469;DHT22;11401;50.792;4.352;2023-03-01T18:41:34;11.30;44.80
22469;DHT22;11401;50.792;4.352;2023-03-01T18:44:03;11.20;44.70